createdAt,value
2019-05-20T00:00:03.642Z,71.92
2019-05-20T00:02:29.951Z,71.49
2019-05-20T00:04:56.295Z,72.12
2019-05-20T00:07:22.645Z,72.36
2019-05-20T00:09:48.998Z,72.12
2019-05-20T00:12:15.324Z,72.18
2019-05-20T00:14:41.700Z,72.53
2019-05-20T00:17:07.981Z,72.43
2019-05-20T00:19:34.324Z,72.28
2019-05-20T00:22:00.659Z,71.46
2019-05-20T00:24:29.769Z,71.07
2019-05-20T00:26:56.110Z,70.21
2019-05-20T00:29:22.422Z,68.69
2019-05-20T00:31:48.765Z,68.40
2019-05-20T00:34:15.076Z,68.79
2019-05-20T00:36:41.405Z,68.51
2019-05-20T00:39:07.725Z,69.30
2019-05-20T00:41:34.042Z,70.27
2019-05-20T00:44:00.393Z,69.64
2019-05-20T00:46:26.693Z,69.71
2019-05-20T00:48:53.031Z,69.82
2019-05-20T00:51:19.385Z,69.20
2019-05-20T00:53:45.689Z,69.52
2019-05-20T00:56:12.022Z,68.75
2019-05-20T00:58:38.355Z,67.98
2019-05-20T01:01:04.703Z,67.94
2019-05-20T01:03:31.000Z,67.88
2019-05-20T01:05:57.314Z,67.61
2019-05-20T01:08:23.635Z,67.68
2019-05-20T01:10:50.014Z,67.95
2019-05-20T01:13:16.369Z,68.02
2019-05-20T01:15:42.658Z,67.06
2019-05-20T01:18:08.998Z,66.31
2019-05-20T01:20:35.339Z,65.86
2019-05-20T01:23:01.640Z,66.30
2019-05-20T01:25:27.984Z,66.81
2019-05-20T01:27:54.298Z,67.26
2019-05-20T01:30:20.636Z,68.03
2019-05-20T01:32:46.945Z,67.75
2019-05-20T01:35:13.271Z,68.06
2019-05-20T01:37:39.575Z,68.14
2019-05-20T01:40:05.886Z,68.01
2019-05-20T01:42:32.228Z,68.05
2019-05-20T01:44:58.527Z,67.98
2019-05-20T01:47:24.863Z,67.29
2019-05-20T01:49:51.199Z,67.23
2019-05-20T01:52:17.532Z,67.42
2019-05-20T01:54:43.884Z,68.02
2019-05-20T01:57:10.207Z,68.83
2019-05-20T01:59:36.537Z,68.76
2019-05-20T02:02:02.845Z,69.16
2019-05-20T02:04:29.173Z,69.55
2019-05-20T02:06:55.480Z,70.29
2019-05-20T02:09:21.789Z,70.56
2019-05-20T02:11:48.120Z,71.07
2019-05-20T02:14:14.424Z,71.11
2019-05-20T02:16:40.746Z,70.81
2019-05-20T02:19:07.080Z,70.63
2019-05-20T02:21:33.380Z,70.67
2019-05-20T02:23:59.711Z,70.22
2019-05-20T02:26:26.036Z,69.51
2019-05-20T02:28:52.348Z,69.44
2019-05-20T02:31:18.691Z,69.58
2019-05-20T02:33:51.826Z,69.57
2019-05-20T02:36:11.293Z,69.59
2019-05-20T02:38:37.610Z,69.69
2019-05-20T02:41:03.946Z,70.03
2019-05-20T02:43:30.249Z,70.46
2019-05-20T02:45:56.585Z,70.21
2019-05-20T02:48:22.901Z,69.54
2019-05-20T02:50:49.223Z,69.46
2019-05-20T02:53:15.529Z,70.02
2019-05-20T02:55:41.863Z,70.31
2019-05-20T02:58:08.178Z,70.64
2019-05-20T03:00:34.490Z,70.88
2019-05-20T03:03:00.853Z,71.57
2019-05-20T03:05:27.130Z,71.96
2019-05-20T03:07:53.470Z,71.79
2019-05-20T03:10:19.814Z,72.26
2019-05-20T03:12:46.102Z,72.29
2019-05-20T03:15:12.409Z,71.77
2019-05-20T03:17:38.729Z,71.94
2019-05-20T03:20:05.064Z,71.87
2019-05-20T03:22:31.360Z,71.93
2019-05-20T03:24:57.689Z,72.17
2019-05-20T03:27:24.018Z,72.03
2019-05-20T03:29:50.327Z,72.28
2019-05-20T03:32:16.646Z,72.98
2019-05-20T03:34:50.623Z,73.25
2019-05-20T03:37:09.370Z,72.85
2019-05-20T03:39:35.718Z,73.52
2019-05-20T03:42:02.024Z,73.26
2019-05-20T03:44:28.347Z,73.99
2019-05-20T03:46:54.657Z,73.94
2019-05-20T03:49:20.978Z,74.24
2019-05-20T03:51:47.284Z,74.50
2019-05-20T03:54:13.615Z,74.57
2019-05-20T03:56:39.943Z,74.90
2019-05-20T03:59:06.251Z,74.99
2019-05-20T04:01:32.579Z,75.25
2019-05-20T04:03:58.893Z,75.78
2019-05-20T04:06:25.199Z,76.14
2019-05-20T04:08:51.530Z,76.52
2019-05-20T04:11:17.834Z,76.84
2019-05-20T04:13:44.159Z,77.14
2019-05-20T04:16:10.483Z,76.94
2019-05-20T04:18:36.787Z,76.63
2019-05-20T04:21:03.114Z,76.48
2019-05-20T04:23:29.429Z,76.50
2019-05-20T04:25:55.808Z,77.23
2019-05-20T04:28:22.121Z,77.70
2019-05-20T04:30:48.472Z,77.86
2019-05-20T04:33:14.793Z,77.16
2019-05-20T04:35:41.107Z,77.80
2019-05-20T04:38:07.441Z,78.65
2019-05-20T04:40:33.753Z,79.96
2019-05-20T04:43:00.083Z,84.51
2019-05-20T04:45:26.406Z,90.65
2019-05-20T04:47:52.728Z,88.95
2019-05-20T04:50:19.050Z,88.21
2019-05-20T04:52:45.512Z,88.03
2019-05-20T04:55:11.821Z,90.34
2019-05-20T04:57:38.161Z,91.00
2019-05-20T05:00:04.483Z,90.58
2019-05-20T05:02:30.815Z,85.78
2019-05-20T05:04:57.124Z,88.39
2019-05-20T05:07:23.451Z,89.67
2019-05-20T05:09:49.762Z,88.75
2019-05-20T05:12:16.091Z,89.09
2019-05-20T05:14:42.458Z,90.24
2019-05-20T05:17:08.746Z,91.11
2019-05-20T05:19:35.086Z,88.80
2019-05-20T05:22:01.440Z,87.26
2019-05-20T05:24:27.757Z,87.84
2019-05-20T05:26:54.111Z,90.32
2019-05-20T05:29:20.420Z,92.73
2019-05-20T05:31:46.732Z,93.64
2019-05-20T05:34:13.167Z,93.14
2019-05-20T05:36:39.472Z,94.21
2019-05-20T05:39:05.768Z,95.83
2019-05-20T05:41:32.098Z,94.95
2019-05-20T05:43:58.397Z,96.47
2019-05-20T05:46:24.734Z,96.53
2019-05-20T05:48:51.047Z,95.04
2019-05-20T05:51:17.382Z,95.51
2019-05-20T05:53:43.804Z,96.02
2019-05-20T05:56:10.108Z,97.67
2019-05-20T05:58:42.408Z,96.73
2019-05-20T06:01:06.762Z,98.42
2019-05-20T06:03:33.062Z,99.48
2019-05-20T06:06:11.398Z,99.98
2019-05-20T06:08:25.703Z,100.00
2019-05-20T06:10:52.028Z,100.00
2019-05-20T06:13:18.375Z,100.00
2019-05-20T06:15:44.673Z,99.19
2019-05-20T06:18:11.443Z,99.26
2019-05-20T06:20:37.760Z,99.70
2019-05-20T06:23:04.102Z,99.23
2019-05-20T06:25:30.427Z,97.84
2019-05-20T06:27:56.741Z,97.90
2019-05-20T06:30:23.046Z,98.05
2019-05-20T06:32:49.352Z,97.55
2019-05-20T06:35:15.746Z,97.55
2019-05-20T06:37:42.052Z,97.50
2019-05-20T06:40:08.383Z,97.33
2019-05-20T06:42:34.698Z,97.36
2019-05-20T06:45:01.028Z,96.50
2019-05-20T06:47:27.346Z,90.89
2019-05-20T06:49:53.732Z,90.76
2019-05-20T06:52:34.836Z,90.21
2019-05-20T06:54:47.055Z,91.91
2019-05-20T06:57:13.477Z,93.76
2019-05-20T06:59:39.710Z,94.16
2019-05-20T07:02:06.041Z,94.46
2019-05-20T07:04:32.344Z,90.24
2019-05-20T07:06:58.674Z,88.87
2019-05-20T07:09:24.981Z,88.67
2019-05-20T07:11:53.101Z,89.02
2019-05-20T07:14:17.610Z,90.80
2019-05-20T07:16:43.915Z,91.71
2019-05-20T07:19:10.258Z,90.00
2019-05-20T07:21:36.582Z,91.86
2019-05-20T07:24:02.903Z,90.19
2019-05-20T07:26:29.216Z,88.50
2019-05-20T07:28:55.567Z,87.38
2019-05-20T07:31:21.898Z,87.34
2019-05-20T07:33:48.233Z,85.68
2019-05-20T07:36:14.572Z,84.42
2019-05-20T07:38:40.912Z,83.56
2019-05-20T07:41:07.243Z,84.57
2019-05-20T07:43:33.583Z,80.44
2019-05-20T07:45:59.892Z,78.29
2019-05-20T07:48:26.242Z,74.75
2019-05-20T07:50:52.572Z,70.26
2019-05-20T07:53:18.881Z,70.97
2019-05-20T07:55:45.209Z,70.32
2019-05-20T07:58:11.544Z,72.25
2019-05-20T08:00:37.862Z,72.68
2019-05-20T08:03:04.164Z,72.87
2019-05-20T08:05:30.504Z,73.92
2019-05-20T08:07:56.827Z,74.26
2019-05-20T08:10:23.149Z,72.59
2019-05-20T08:12:49.454Z,68.75
2019-05-20T08:15:15.766Z,68.89
2019-05-20T08:17:42.105Z,69.91
2019-05-20T08:20:08.412Z,68.83
2019-05-20T08:22:34.741Z,69.62
2019-05-20T08:25:01.067Z,69.54
2019-05-20T08:27:27.401Z,67.29
2019-05-20T08:29:53.726Z,65.85
2019-05-20T08:32:20.031Z,66.77
2019-05-20T08:34:46.363Z,67.43
2019-05-20T08:37:12.670Z,66.68
2019-05-20T08:39:38.985Z,67.66
2019-05-20T08:42:05.312Z,68.10
2019-05-20T08:44:31.648Z,67.72
2019-05-20T08:46:57.964Z,67.91
2019-05-20T08:49:24.289Z,68.46
2019-05-20T08:51:50.589Z,68.51
2019-05-20T08:54:16.994Z,67.39
2019-05-20T08:56:43.353Z,68.03
2019-05-20T08:59:09.679Z,65.91
2019-05-20T09:01:36.000Z,65.04
2019-05-20T09:04:02.333Z,65.21
2019-05-20T09:06:28.638Z,64.65
2019-05-20T09:08:54.970Z,64.96
2019-05-20T09:11:21.395Z,65.72
2019-05-20T09:13:47.653Z,65.15
2019-05-20T09:16:13.978Z,64.95
2019-05-20T09:18:40.305Z,65.29
2019-05-20T09:21:06.696Z,64.08
2019-05-20T09:23:33.000Z,63.49
2019-05-20T09:25:59.302Z,63.65
2019-05-20T09:28:25.597Z,64.10
2019-05-20T09:30:51.925Z,61.80
2019-05-20T09:33:18.228Z,62.06
2019-05-20T09:35:44.739Z,62.73
2019-05-20T09:38:20.269Z,62.66
2019-05-20T09:40:37.233Z,61.28
2019-05-20T09:43:03.556Z,59.90
2019-05-20T09:45:29.876Z,58.62
2019-05-20T09:47:56.202Z,58.23
2019-05-20T09:50:22.504Z,58.87
2019-05-20T09:52:48.841Z,58.85
2019-05-20T09:55:15.146Z,57.35
2019-05-20T09:57:41.453Z,54.44
2019-05-20T10:00:07.782Z,55.01
2019-05-20T10:02:38.040Z,56.58
2019-05-20T10:05:00.532Z,54.90
2019-05-20T10:07:26.854Z,55.61
2019-05-20T10:09:53.162Z,57.36
2019-05-20T10:12:19.493Z,58.37
2019-05-20T10:14:45.869Z,58.96
2019-05-20T10:17:12.194Z,58.65
2019-05-20T10:19:38.507Z,57.75
2019-05-20T10:22:04.909Z,57.70
2019-05-20T10:24:31.183Z,58.76
2019-05-20T10:26:57.509Z,59.33
2019-05-20T10:29:23.832Z,58.75
2019-05-20T10:31:50.137Z,59.47
2019-05-20T10:34:16.479Z,59.01
2019-05-20T10:36:42.814Z,58.78
2019-05-20T10:39:09.134Z,57.60
2019-05-20T10:41:35.444Z,54.72
2019-05-20T10:44:01.778Z,51.81
2019-05-20T10:46:28.105Z,49.90
2019-05-20T10:48:54.407Z,49.85
2019-05-20T10:51:20.746Z,50.07
2019-05-20T10:53:47.075Z,50.63
2019-05-20T10:56:13.790Z,51.01
2019-05-20T10:58:39.809Z,51.89
2019-05-20T11:01:06.152Z,52.24
2019-05-20T11:03:32.450Z,53.45
2019-05-20T11:05:58.759Z,54.12
2019-05-20T11:08:25.089Z,54.68
2019-05-20T11:10:51.443Z,54.63
2019-05-20T11:13:17.740Z,54.67
2019-05-20T11:15:44.072Z,55.43
2019-05-20T11:18:10.373Z,56.21
2019-05-20T11:20:36.706Z,54.72
2019-05-20T11:23:03.010Z,53.76
2019-05-20T11:25:29.334Z,53.61
2019-05-20T11:27:55.664Z,53.47
2019-05-20T11:30:22.216Z,52.85
2019-05-20T11:32:48.543Z,53.52
2019-05-20T11:35:14.853Z,53.51
2019-05-20T11:37:41.183Z,52.81
2019-05-20T11:40:07.674Z,52.54
2019-05-20T11:42:33.871Z,52.39
2019-05-20T11:45:00.197Z,52.14
2019-05-20T11:47:26.507Z,52.31
2019-05-20T11:49:52.830Z,52.85
2019-05-20T11:52:19.128Z,53.25
2019-05-20T11:54:45.460Z,53.10
2019-05-20T11:57:11.766Z,53.26
2019-05-20T11:59:38.106Z,53.20
2019-05-20T12:02:04.466Z,53.43
2019-05-20T12:04:30.745Z,53.47
2019-05-20T12:06:57.075Z,53.45
2019-05-20T12:09:23.387Z,53.58
2019-05-20T12:11:49.733Z,54.26
2019-05-20T12:14:16.056Z,55.59
2019-05-20T12:16:42.368Z,56.89
2019-05-20T12:19:08.673Z,57.98
2019-05-20T12:21:35.010Z,58.72
2019-05-20T12:24:01.345Z,59.35
2019-05-20T12:26:27.696Z,59.90
2019-05-20T12:28:53.999Z,60.30
2019-05-20T12:31:20.301Z,60.46
2019-05-20T12:33:46.605Z,60.55
2019-05-20T12:36:12.934Z,59.82
2019-05-20T12:38:39.240Z,57.40
2019-05-20T12:41:05.576Z,55.52
2019-05-20T12:43:31.891Z,56.40
2019-05-20T12:45:58.196Z,58.04
2019-05-20T12:48:24.530Z,59.63
2019-05-20T12:50:50.833Z,61.11
2019-05-20T12:53:17.154Z,61.65
2019-05-20T12:55:43.473Z,63.28
2019-05-20T12:58:09.801Z,63.76
2019-05-20T13:00:36.109Z,63.71
2019-05-20T13:03:02.424Z,64.55
2019-05-20T13:05:28.748Z,65.17
2019-05-20T13:07:55.074Z,66.29
2019-05-20T13:10:31.652Z,67.54
2019-05-20T13:12:47.699Z,68.36
2019-05-20T13:15:14.028Z,69.92
2019-05-20T13:17:44.177Z,69.57
2019-05-20T13:20:06.669Z,68.88
2019-05-20T13:22:32.991Z,68.17
2019-05-20T13:24:59.293Z,69.27
2019-05-20T13:27:25.633Z,70.75
2019-05-20T13:29:51.940Z,71.07
2019-05-20T13:32:18.258Z,69.80
2019-05-20T13:34:44.577Z,66.86
2019-05-20T13:37:10.901Z,65.64
2019-05-20T13:39:37.204Z,65.29
2019-05-20T13:42:03.507Z,64.56
2019-05-20T13:44:29.831Z,63.91
2019-05-20T13:46:56.170Z,62.40
2019-05-20T13:49:22.493Z,61.07
2019-05-20T13:51:48.815Z,60.27
2019-05-20T13:54:15.117Z,59.76
2019-05-20T13:56:41.443Z,59.00
2019-05-20T13:59:07.743Z,59.12
2019-05-20T14:01:34.051Z,59.51
2019-05-20T14:04:00.380Z,59.66
2019-05-20T14:06:26.735Z,58.77
2019-05-20T14:08:53.064Z,57.66
2019-05-20T14:11:32.562Z,57.32
2019-05-20T14:13:45.697Z,57.27
2019-05-20T14:16:12.005Z,55.75
2019-05-20T14:18:38.336Z,54.50
2019-05-20T14:21:04.655Z,54.87
2019-05-20T14:23:31.007Z,52.87
2019-05-20T14:25:57.337Z,54.19
2019-05-20T14:28:23.653Z,56.90
2019-05-20T14:30:49.952Z,59.28
2019-05-20T14:33:16.283Z,61.35
2019-05-20T14:35:42.591Z,62.37
2019-05-20T14:38:08.919Z,62.96
2019-05-20T14:40:35.238Z,59.54
2019-05-20T14:43:01.551Z,57.64
2019-05-20T14:45:27.891Z,57.98
2019-05-20T14:47:54.209Z,56.67
2019-05-20T14:50:20.519Z,56.98
2019-05-20T14:52:46.824Z,56.97
2019-05-20T14:55:13.199Z,55.31
2019-05-20T14:57:39.449Z,56.82
2019-05-20T15:00:05.755Z,58.83
2019-05-20T15:02:32.103Z,60.87
2019-05-20T15:04:58.407Z,61.28
2019-05-20T15:07:30.307Z,61.75
2019-05-20T15:09:51.108Z,61.96
2019-05-20T15:12:17.417Z,61.21
2019-05-20T15:14:43.754Z,59.32
2019-05-20T15:17:10.061Z,59.21
2019-05-20T15:19:36.380Z,59.57
2019-05-20T15:22:02.758Z,59.79
2019-05-20T15:24:29.069Z,59.92
2019-05-20T15:26:55.719Z,60.02
2019-05-20T15:29:28.100Z,60.66
2019-05-20T15:31:48.274Z,61.04
2019-05-20T15:34:14.628Z,61.83
2019-05-20T15:36:40.962Z,62.56
2019-05-20T15:39:07.283Z,63.10
2019-05-20T15:41:33.655Z,63.58
2019-05-20T15:43:59.941Z,64.28
2019-05-20T15:46:26.255Z,65.10
2019-05-20T15:48:52.575Z,65.43
2019-05-20T15:51:18.878Z,65.25
2019-05-20T15:53:45.218Z,64.94
2019-05-20T15:56:11.580Z,66.91
2019-05-20T15:58:37.879Z,67.08
2019-05-20T16:01:04.198Z,68.01
2019-05-20T16:03:30.467Z,69.35
2019-05-20T16:05:59.758Z,69.49
2019-05-20T16:08:23.112Z,69.97
2019-05-20T16:10:49.447Z,69.06
2019-05-20T16:13:15.753Z,68.49
2019-05-20T16:15:42.084Z,68.21
2019-05-20T16:18:08.429Z,68.40
2019-05-20T16:20:34.728Z,68.39
2019-05-20T16:23:01.088Z,68.26
2019-05-20T16:25:27.398Z,68.20
2019-05-20T16:27:53.756Z,68.16
2019-05-20T16:30:20.039Z,68.02
2019-05-20T16:32:46.365Z,68.05
2019-05-20T16:35:12.689Z,67.91
2019-05-20T16:37:39.014Z,67.85
2019-05-20T16:40:05.377Z,68.09
2019-05-20T16:42:31.698Z,68.29
2019-05-20T16:44:58.007Z,68.39
2019-05-20T16:47:24.342Z,68.45
2019-05-20T16:49:50.653Z,68.39
2019-05-20T16:52:17.029Z,68.57
2019-05-20T16:54:43.341Z,68.85
2019-05-20T16:57:09.664Z,71.72
2019-05-20T16:59:35.988Z,71.55
2019-05-20T17:02:02.290Z,70.86
2019-05-20T17:04:28.647Z,71.10
2019-05-20T17:06:54.928Z,71.58
2019-05-20T17:09:21.294Z,71.67
2019-05-20T17:11:47.598Z,71.85
2019-05-20T17:14:13.938Z,72.23
2019-05-20T17:16:40.263Z,72.39
2019-05-20T17:19:06.579Z,72.50
2019-05-20T17:21:32.913Z,72.54
2019-05-20T17:23:59.216Z,72.58
2019-05-20T17:26:25.545Z,72.87
2019-05-20T17:28:51.863Z,73.30
2019-05-20T17:31:18.194Z,73.17
2019-05-20T17:33:44.522Z,73.56
2019-05-20T17:36:10.822Z,73.77
2019-05-20T17:38:37.149Z,73.61
2019-05-20T17:41:03.458Z,73.72
2019-05-20T17:43:29.801Z,73.67
2019-05-20T17:45:56.123Z,73.45
2019-05-20T17:48:22.434Z,74.34
2019-05-20T17:50:48.815Z,74.92
2019-05-20T17:53:15.086Z,75.08
2019-05-20T17:55:41.416Z,75.30
2019-05-20T17:58:07.735Z,75.79
2019-05-20T18:00:34.035Z,76.71
2019-05-20T18:03:00.671Z,77.51
2019-05-20T18:05:26.979Z,77.96
2019-05-20T18:07:53.332Z,78.34
2019-05-20T18:10:19.652Z,78.56
2019-05-20T18:12:45.990Z,78.62
2019-05-20T18:15:12.322Z,78.80
2019-05-20T18:17:38.645Z,79.35
2019-05-20T18:20:04.960Z,79.35
2019-05-20T18:22:31.274Z,79.85
2019-05-20T18:24:58.566Z,80.14
2019-05-20T18:27:24.991Z,80.03
2019-05-20T18:29:51.348Z,79.73
2019-05-20T18:32:17.651Z,80.14
2019-05-20T18:34:43.964Z,80.29
2019-05-20T18:37:10.288Z,81.11
2019-05-20T18:39:36.597Z,81.41
2019-05-20T18:42:02.927Z,82.12
2019-05-20T18:44:29.257Z,85.24
2019-05-20T18:46:55.585Z,84.04
2019-05-20T18:49:21.899Z,82.65
2019-05-20T18:51:48.229Z,82.88
2019-05-20T18:54:14.566Z,83.25
2019-05-20T18:56:40.896Z,83.18
2019-05-20T18:59:07.229Z,83.44
2019-05-20T19:01:47.326Z,83.31
2019-05-20T19:04:00.219Z,83.67
2019-05-20T19:06:26.582Z,84.49
2019-05-20T19:08:52.888Z,84.33
2019-05-20T19:11:19.208Z,84.46
2019-05-20T19:13:45.531Z,83.78
2019-05-20T19:16:11.851Z,83.75
2019-05-20T19:18:38.197Z,84.14
2019-05-20T19:21:04.497Z,84.88
2019-05-20T19:23:30.828Z,84.90
2019-05-20T19:25:57.133Z,84.71
2019-05-20T19:28:23.468Z,85.01
2019-05-20T19:30:49.770Z,85.19
2019-05-20T19:33:16.082Z,85.75
2019-05-20T19:35:42.459Z,86.41
2019-05-20T19:38:08.741Z,86.68
2019-05-20T19:40:35.079Z,87.25
2019-05-20T19:43:01.405Z,87.08
2019-05-20T19:45:27.715Z,87.15
2019-05-20T19:47:54.047Z,87.15
2019-05-20T19:50:20.348Z,86.81
2019-05-20T19:52:46.673Z,86.64
2019-05-20T19:55:13.000Z,86.70
2019-05-20T19:57:39.303Z,86.89
2019-05-20T20:00:05.624Z,87.21
2019-05-20T20:02:31.928Z,87.36
2019-05-20T20:04:58.251Z,87.62
2019-05-20T20:07:24.565Z,87.68
2019-05-20T20:09:50.897Z,87.01
2019-05-20T20:12:17.218Z,87.20
2019-05-20T20:14:43.575Z,87.46
2019-05-20T20:17:09.905Z,87.33
2019-05-20T20:19:36.391Z,87.22
2019-05-20T20:22:02.707Z,87.40
2019-05-20T20:24:29.036Z,87.84
2019-05-20T20:26:55.344Z,87.53
2019-05-20T20:29:21.702Z,88.06
2019-05-20T20:31:48.024Z,88.08
2019-05-20T20:34:14.372Z,88.44
2019-05-20T20:36:40.710Z,88.50
2019-05-20T20:39:07.018Z,88.56
2019-05-20T20:41:33.342Z,88.15
2019-05-20T20:43:59.648Z,87.52
2019-05-20T20:46:25.980Z,87.77
2019-05-20T20:48:52.291Z,87.82
2019-05-20T20:51:18.599Z,88.42
2019-05-20T20:53:44.926Z,88.96
2019-05-20T20:56:24.080Z,88.85
2019-05-20T20:58:37.561Z,89.22
2019-05-20T21:01:03.860Z,89.31
2019-05-20T21:03:30.187Z,89.66
2019-05-20T21:05:56.492Z,89.87
2019-05-20T21:08:22.826Z,90.28
2019-05-20T21:10:49.143Z,90.45
2019-05-20T21:13:15.452Z,90.73
2019-05-20T21:15:41.784Z,90.89
2019-05-20T21:18:08.099Z,90.81
2019-05-20T21:20:34.421Z,91.65
2019-05-20T21:23:00.729Z,91.62
2019-05-20T21:25:27.077Z,91.02
2019-05-20T21:27:53.410Z,90.93
2019-05-20T21:30:19.711Z,90.55
2019-05-20T21:32:46.038Z,90.22
2019-05-20T21:35:12.368Z,90.39
2019-05-20T21:37:38.710Z,90.31
2019-05-20T21:40:05.033Z,90.61
2019-05-20T21:42:31.344Z,90.79
2019-05-20T21:44:57.715Z,90.50
2019-05-20T21:47:23.980Z,90.37
2019-05-20T21:49:50.301Z,90.50
2019-05-20T21:52:16.617Z,91.00
2019-05-20T21:54:42.946Z,91.96
2019-05-20T21:57:09.273Z,92.78
2019-05-20T21:59:35.584Z,93.35
2019-05-20T22:02:01.906Z,93.95
2019-05-20T22:04:28.212Z,94.25
2019-05-20T22:06:54.544Z,95.18
2019-05-20T22:09:20.878Z,98.82
2019-05-20T22:11:47.195Z,100.00
2019-05-20T22:14:13.524Z,99.61
2019-05-20T22:16:39.928Z,98.46
2019-05-20T22:19:06.206Z,98.62
2019-05-20T22:21:32.529Z,97.80
2019-05-20T22:23:58.895Z,97.46
2019-05-20T22:26:25.190Z,97.76
2019-05-20T22:28:51.531Z,98.29
2019-05-20T22:31:17.858Z,97.76
2019-05-20T22:33:44.166Z,98.26
2019-05-20T22:36:10.488Z,98.64
2019-05-20T22:38:36.830Z,98.51
2019-05-20T22:41:03.142Z,98.51
2019-05-20T22:43:29.447Z,99.09
2019-05-20T22:45:55.776Z,99.22
2019-05-20T22:48:22.117Z,99.02
2019-05-20T22:50:48.989Z,98.70
2019-05-20T22:53:14.749Z,98.66
2019-05-20T22:55:41.064Z,99.61
2019-05-20T22:58:07.368Z,100.00
2019-05-20T23:00:33.703Z,100.00
2019-05-20T23:03:00.025Z,100.00
2019-05-20T23:05:26.352Z,100.00
2019-05-20T23:07:52.679Z,100.00
2019-05-20T23:10:18.981Z,100.00
2019-05-20T23:12:45.321Z,100.00
2019-05-20T23:15:11.637Z,100.00
2019-05-20T23:17:37.971Z,100.00
2019-05-20T23:20:04.285Z,100.00
2019-05-20T23:22:30.615Z,100.00
2019-05-20T23:24:56.923Z,100.00
2019-05-20T23:27:23.236Z,100.00
2019-05-20T23:29:49.572Z,100.00
2019-05-20T23:32:15.884Z,100.00
2019-05-20T23:34:42.217Z,100.00
2019-05-20T23:37:08.523Z,100.00
2019-05-20T23:39:34.854Z,100.00
2019-05-20T23:42:01.159Z,100.00
2019-05-20T23:44:27.496Z,100.00
2019-05-20T23:46:53.815Z,100.00
2019-05-20T23:49:20.125Z,100.00
2019-05-20T23:51:46.453Z,100.00
2019-05-20T23:54:12.761Z,100.00
2019-05-20T23:56:39.089Z,100.00
2019-05-20T23:59:05.397Z,100.00
